Data for 01/17/2008

Time Sea-Level Adjusted Pressure Absolute Pressure Temperature Relative Humidity Dew Point   
(mb) (inHg) (mb) (inHg) (C) (F) (%) (C) (F)
00:05 1020 30.12 849 25.07 -9.3 15.3 66 -14.5 5.9
00:10 1020 30.12 849 25.07 -9 15.7 63 -14.9 5.2
00:15 1020 30.12 849 25.07 -8.8 16.2 61 -15 5
00:20 1020 30.12 849 25.07 -8.7 16.4 62 -14.6 5.7
00:25 1020 30.12 849 25.07 -8.6 16.4 63 -14.4 6
00:30 1020 30.12 849 25.07 -8.6 16.5 66 -14 6.9
00:35 1020 30.12 849 25.07 -8.8 16.3 67 -13.8 7.1
00:40 1020 30.12 849 25.07 -8.9 16 69 -13.6 7.5
00:45 1020 30.12 849 25.07 -9 15.8 71 -13.4 8
00:50 1020 30.12 849 25.07 -9.1 15.6 72 -13.3 8.1
00:55 1020 30.12 849 25.07 -9.1 15.5 73 -13.2 8.3
01:00 1019 30.09 849 25.07 -9.2 15.5 74 -13 8.6
01:05 1019 30.09 849 25.07 -9.4 15.1 76 -12.8 9
01:10 1019 30.09 848 25.04 -9.6 14.8 78 -12.7 9.2
01:15 1019 30.09 848 25.04 -9.7 14.6 81 -12.3 9.8
01:20 1019 30.09 848 25.04 -9.9 14.1 84 -12.2 10.1
01:25 1019 30.09 848 25.04 -10.1 13.9 86 -12 10.4
01:30 1019 30.09 848 25.04 -10.2 13.6 88 -11.8 10.7
01:35 1019 30.09 848 25.04 -10.3 13.5 88 -11.9 10.6
01:40 1019 30.09 848 25.04 -10.4 13.3 89 -11.9 10.6
01:45 1019 30.09 848 25.04 -10.5 13.2 90 -11.9 10.6
01:50 1019 30.09 848 25.04 -10.5 13 89 -12 10.4
01:55 1018 30.06 848 25.04 -10.6 13 90 -11.9 10.6
02:00 1019 30.09 848 25.04 -10.3 13.4 89 -11.9 10.7
02:05 1019 30.09 848 25.04 -10.3 13.5 89 -11.8 10.8
02:10 1019 30.09 848 25.04 -10.1 13.9 89 -11.6 11.1
02:15 1019 30.09 848 25.04 -9.9 14.1 89 -11.5 11.3
02:20 1019 30.09 848 25.04 -9.8 14.3 88 -11.5 11.3
02:25 1019 30.09 848 25.04 -9.8 14.3 89 -11.3 11.6
02:30 1019 30.09 848 25.04 -9.8 14.4 89 -11.3 11.6
02:35 1019 30.09 848 25.04 -9.7 14.5 88 -11.4 11.6
02:40 1019 30.09 848 25.04 -9.7 14.6 88 -11.4 11.6
02:45 1019 30.09 848 25.04 -9.8 14.4 88 -11.4 11.5
02:50 1019 30.09 848 25.04 -9.8 14.4 88 -11.4 11.5
02:55 1019 30.09 848 25.04 -9.8 14.4 89 -11.3 11.6
03:00 1019 30.09 848 25.04 -9.8 14.3 88 -11.4 11.5
03:05 1019 30.09 848 25.04 -9.9 14.3 89 -11.4 11.5
03:10 1019 30.09 848 25.04 -10 14 90 -11.4 11.5
03:15 1019 30.09 848 25.04 -10 14 90 -11.4 11.5
03:20 1019 30.09 848 25.04 -10 14 90 -11.3 11.6
03:25 1019 30.09 848 25.04 -10 13.9 90 -11.4 11.5
03:30 1019 30.09 848 25.04 -10 14 90 -11.4 11.5
03:35 1019 30.09 848 25.04 -10 13.9 90 -11.4 11.5
03:40 1019 30.09 848 25.04 -10 14 90 -11.3 11.6
03:45 1018 30.06 848 25.04 -10 13.9 90 -11.4 11.4
03:50 1018 30.06 847 25.01 -10.1 13.8 90 -11.4 11.5
03:55 1018 30.06 847 25.01 -10 13.9 91 -11.2 11.8
04:00 1018 30.06 847 25.01 -9.8 14.3 90 -11.2 11.9
04:05 1018 30.06 847 25.01 -9.7 14.6 90 -11.1 12
04:10 1018 30.06 848 25.04 -9.7 14.6 89 -11.1 12
04:15 1018 30.06 847 25.01 -9.7 14.6 90 -11.1 12.1
04:20 1018 30.06 847 25.01 -9.6 14.7 89 -11.1 12.1
04:25 1018 30.06 847 25.01 -9.6 14.7 89 -11.1 12
04:30 1018 30.06 847 25.01 -9.6 14.8 88 -11.2 11.9
04:35 1018 30.06 847 25.01 -9.6 14.7 89 -11.1 12
04:40 1018 30.06 847 25.01 -9.6 14.7 89 -11.1 12
04:45 1018 30.06 847 25.01 -9.6 14.8 89 -11.1 12.1
04:50 1018 30.06 847 25.01 -9.6 14.8 89 -11.1 12
04:55 1017 30.03 847 25.01 -9.6 14.8 88 -11.2 11.9
05:00 1017 30.03 847 25.01 -9.6 14.8 88 -11.2 11.9
05:05 1017 30.03 847 25.01 -9.6 14.7 88 -11.2 11.9
05:10 1017 30.03 847 25.01 -9.6 14.7 89 -11.2 11.9
05:15 1017 30.03 847 25.01 -9.5 14.8 88 -11.1 12
05:20 1017 30.03 846 24.98 -9.5 15 88 -11 12.1
05:25 1017 30.03 846 24.98 -9.5 15 89 -11 12.2
05:30 1017 30.03 846 24.98 -9.6 14.7 89 -11 12.2
05:35 1017 30.03 846 24.98 -9.9 14.3 90 -11.2 11.8
05:40 1017 30.03 846 24.98 -9.7 14.6 89 -11.1 11.9
05:45 1017 30.03 846 24.98 -9.6 14.7 89 -11.1 12
05:50 1017 30.03 846 24.98 -9.7 14.6 89 -11.2 11.8
05:55 1017 30.03 846 24.98 -9.5 14.9 88 -11.2 11.8
06:00 1017 30.03 846 24.98 -9.3 15.2 87 -11.1 12
06:05 1017 30.03 846 24.98 -9.1 15.6 86 -11 12.2
06:10 1017 30.03 846 24.98 -9 15.8 86 -11 12.2
06:15 1017 30.03 846 24.98 -8.9 15.9 86 -10.9 12.4
06:20 1017 30.03 846 24.98 -8.9 16 85 -10.9 12.4
06:25 1017 30.03 846 24.98 -8.9 16 86 -10.8 12.5
06:30 1017 30.03 846 24.98 -8.8 16.2 85 -10.9 12.4
06:35 1017 30.03 846 24.98 -8.7 16.3 84 -10.9 12.4
06:40 1017 30.03 846 24.98 -8.6 16.5 84 -10.9 12.3
06:45 1017 30.03 846 24.98 -8.5 16.8 83 -10.9 12.4
06:50 1017 30.03 846 24.98 -8.5 16.7 81 -11.2 11.9
06:55 1017 30.03 846 24.98 -8.5 16.7 81 -11.3 11.7
07:00 1017 30.03 846 24.98 -8.5 16.7 80 -11.4 11.6
07:05 1017 30.03 846 24.98 -8.5 16.7 79 -11.5 11.3
07:10 1017 30.03 846 24.98 -8.5 16.7 77 -11.8 10.7
07:15 1017 30.03 846 24.98 -8.4 16.8 77 -11.9 10.7
07:20 1017 30.03 846 24.98 -8.5 16.8 76 -12 10.5
07:25 1017 30.03 846 24.98 -8.5 16.8 75 -12.2 10.1
07:30 1016 30 846 24.98 -8.5 16.8 74 -12.3 9.8
07:35 1016 30 845 24.95 -8.5 16.8 74 -12.3 9.9
07:40 1016 30 845 24.95 -8.4 17 74 -12.1 10.1
07:45 1016 30 845 24.95 -8.3 17.1 73 -12.3 9.9
07:50 1016 30 846 24.98 -8.3 17.2 73 -12.3 9.9
07:55 1016 30 846 24.98 -8.2 17.3 73 -12.3 9.9
08:00 1016 30 845 24.95 -8.2 17.3 73 -12.2 10
08:05 1016 30 845 24.95 -8.2 17.3 71 -12.6 9.4
08:10 1016 30 845 24.95 -8.1 17.3 71 -12.6 9.4
08:15 1016 30 845 24.95 -8.1 17.5 70 -12.6 9.2
08:20 1016 30 845 24.95 -8 17.7 69 -12.6 9.3
08:25 1016 30 845 24.95 -7.8 17.9 69 -12.6 9.3
08:30 1016 30 845 24.95 -7.7 18.1 69 -12.5 9.5
08:35 1016 30 845 24.95 -7.6 18.3 68 -12.6 9.3
08:40 1016 30 845 24.95 -7.5 18.5 69 -12.3 9.9
08:45 1016 30 845 24.95 -7.4 18.6 68 -12.4 9.7
08:50 1016 30 845 24.95 -7.3 18.8 67 -12.4 9.6
08:55 1016 30 845 24.95 -7 19.3 67 -12.2 10.1
09:00 1016 30 845 24.95 -6.8 19.7 66 -12.1 10.1
09:05 1016 30 845 24.95 -6.7 19.9 65 -12.3 9.8
09:10 1016 30 845 24.95 -6.5 20.2 65 -12 10.3
09:15 1016 30 845 24.95 -6.5 20.4 63 -12.4 9.8
09:20 1016 30 845 24.95 -6.5 20.3 63 -12.5 9.6
09:25 1016 30 845 24.95 -6.5 20.3 64 -12.3 9.9
09:30 1016 30 845 24.95 -6.6 20.1 63 -12.5 9.5
09:35 1016 30 845 24.95 -6.7 20 66 -12.1 10.3
09:40 1016 30 845 24.95 -6.5 20.3 64 -12.3 9.9
09:45 1016 30 845 24.95 -6.4 20.5 63 -12.3 9.9
09:50 1016 30 845 24.95 -6.4 20.4 63 -12.3 9.8
09:55 1016 30 845 24.95 -6.5 20.3 65 -12.1 10.2
10:00 1016 30 845 24.95 -6.5 20.3 65 -12 10.4
10:05 1016 30 845 24.95 -6.5 20.4 66 -11.9 10.6
10:10 1016 30 845 24.95 -6.4 20.5 66 -11.7 10.9
10:15 1016 30 845 24.95 -6.4 20.6 67 -11.5 11.3
10:20 1016 30 845 24.95 -6.3 20.7 67 -11.4 11.4
10:25 1016 30 845 24.95 -6.3 20.6 66 -11.7 11
10:30 1016 30 845 24.95 -6.3 20.7 66 -11.6 11.2
10:35 1016 30 845 24.95 -6.2 20.9 67 -11.4 11.5
10:40 1016 30 845 24.95 -6 21.2 66 -11.4 11.5
10:45 1016 30 845 24.95 -5.9 21.5 65 -11.5 11.3
10:50 1016 30 846 24.98 -5.7 21.7 65 -11.3 11.7
10:55 1016 30 846 24.98 -5.6 21.9 66 -11 12.1
11:00 1016 30 846 24.98 -5.4 22.2 66 -10.9 12.4
11:05 1016 30 846 24.98 -5.3 22.4 67 -10.4 13.2
11:10 1016 30 846 24.98 -5.2 22.6 67 -10.5 13.1
11:15 1017 30.03 846 24.98 -5.2 22.7 68 -10.3 13.5
11:20 1017 30.03 846 24.98 -5.1 22.7 69 -10 14
11:25 1017 30.03 846 24.98 -5.1 22.8 70 -9.8 14.4
11:30 1017 30.03 846 24.98 -5.1 22.8 71 -9.7 14.6
11:35 1017 30.03 846 24.98 -5.2 22.7 71 -9.6 14.7
11:40 1017 30.03 846 24.98 -5.1 22.9 72 -9.3 15.3
11:45 1017 30.03 846 24.98 -5 23 71 -9.4 15.1
11:50 1016 30 846 24.98 -5 23 73 -9.1 15.6
11:55 1016 30 846 24.98 -5 23 73 -9.1 15.6
12:00 1016 30 846 24.98 -4.8 23.4 73 -8.9 16
12:05 1016 30 846 24.98 -4.7 23.5 73 -8.8 16.2
12:10 1016 30 845 24.95 -4.6 23.8 73 -8.7 16.4
12:15 1016 30 845 24.95 -4.6 23.6 72 -9 15.8
12:20 1016 30 845 24.95 -4.7 23.6 72 -9 15.8
12:25 1016 30 845 24.95 -4.9 23.2 72 -9.1 15.6
12:30 1016 30 845 24.95 -4.7 23.6 69 -9.4 15
12:35 1016 30 845 24.95 -4.8 23.4 72 -9 15.7
12:40 1016 30 845 24.95 -4.7 23.6 70 -9.4 15.2
12:45 1016 30 845 24.95 -4.6 23.7 71 -9.1 15.7
12:50 1016 30 845 24.95 -4.5 23.9 72 -8.9 16
12:55 1016 30 845 24.95 -4.4 24.1 71 -8.9 16
13:00 1016 30 845 24.95 -4.1 24.6 71 -8.6 16.5
13:05 1016 30 845 24.95 -3.8 25.1 70 -8.6 16.5
13:10 1016 30 845 24.95 -3.7 25.3 69 -8.6 16.5
13:15 1016 30 845 24.95 -4 24.8 72 -8.4 16.9
13:20 1016 30 845 24.95 -4.1 24.6 73 -8.3 17.1
13:25 1016 30 846 24.98 -4.3 24.2 76 -8 17.7
13:30 1016 30 846 24.98 -4.2 24.5 75 -8 17.7
13:35 1016 30 846 24.98 -4.5 23.9 79 -7.6 18.2
13:40 1016 30 846 24.98 -4.2 24.4 77 -7.6 18.3
13:45 1016 30 846 24.98 -4.4 24.1 79 -7.5 18.5
13:50 1016 30 846 24.98 -4.6 23.8 81 -7.3 18.8
13:55 1016 30 846 24.98 -4.6 23.7 81 -7.4 18.8
14:00 1016 30 846 24.98 -4.3 24.2 80 -7.3 18.9
14:05 1016 30 846 24.98 -4.2 24.4 77 -7.6 18.3
14:10 1016 30 846 24.98 -4 24.8 77 -7.5 18.5
14:15 1016 30 846 24.98 -4.1 24.6 78 -7.3 18.8
14:20 1016 30 846 24.98 -4 24.8 77 -7.4 18.7
14:25 1016 30 846 24.98 -4 24.8 79 -7.1 19.2
14:30 1016 30 846 24.98 -4.1 24.6 80 -7.1 19.3
14:35 1016 30 846 24.98 -4 24.7 79 -7.2 19.1
14:40 1016 30 846 24.98 -4.1 24.6 80 -7 19.4
14:45 1016 30 846 24.98 -4.3 24.2 80 -7.3 18.9
14:50 1017 30.03 846 24.98 -4.4 24 81 -7.2 19.1
14:55 1017 30.03 846 24.98 -4.5 23.9 81 -7.2 19
15:00 1017 30.03 846 24.98 -4.4 24.1 82 -7.1 19.3
15:05 1017 30.03 846 24.98 -4.3 24.3 81 -7 19.4
15:10 1017 30.03 846 24.98 -4.3 24.2 83 -6.8 19.7
15:15 1017 30.03 846 24.98 -4.3 24.3 83 -6.8 19.8
15:20 1017 30.03 846 24.98 -4.2 24.4 82 -6.9 19.6
15:25 1017 30.03 846 24.98 -4.2 24.4 82 -6.8 19.7
15:30 1017 30.03 846 24.98 -4.3 24.3 83 -6.8 19.8
15:35 1017 30.03 846 24.98 -4.3 24.3 82 -6.8 19.7
15:40 1017 30.03 846 24.98 -4.3 24.3 84 -6.6 20
15:45 1017 30.03 846 24.98 -4.1 24.6 82 -6.7 19.9
15:50 1017 30.03 846 24.98 -4.2 24.5 84 -6.5 20.2
15:55 1017 30.03 846 24.98 -4.2 24.5 85 -6.3 20.6
16:00 1017 30.03 846 24.98 -4.3 24.3 85 -6.5 20.4
16:05 1017 30.03 846 24.98 -4.3 24.2 85 -6.5 20.3
16:10 1017 30.03 846 24.98 -4.5 23.9 86 -6.5 20.2
16:15 1017 30.03 846 24.98 -4.7 23.6 87 -6.5 20.3
16:20 1017 30.03 846 24.98 -4.8 23.4 88 -6.5 20.2
16:25 1017 30.03 846 24.98 -4.8 23.4 88 -6.5 20.3
16:30 1017 30.03 847 25.01 -4.8 23.4 88 -6.5 20.3
16:35 1017 30.03 847 25.01 -4.8 23.4 87 -6.6 20
16:40 1017 30.03 847 25.01 -5 23 89 -6.6 20.2
16:45 1017 30.03 847 25.01 -5.1 22.8 90 -6.5 20.3
16:50 1017 30.03 847 25.01 -5 22.9 90 -6.4 20.5
16:55 1017 30.03 847 25.01 -5 23.1 90 -6.3 20.7
17:00 1017 30.03 847 25.01 -4.9 23.1 90 -6.3 20.7
17:05 1017 30.03 847 25.01 -5 23 91 -6.2 20.8
17:10 1018 30.06 847 25.01 -4.9 23.2 90 -6.2 20.8
17:15 1018 30.06 847 25.01 -4.8 23.4 91 -6.1 21.1
17:20 1018 30.06 847 25.01 -4.8 23.4 92 -5.9 21.3
17:25 1018 30.06 847 25.01 -4.7 23.5 92 -5.9 21.4
17:30 1018 30.06 847 25.01 -4.7 23.6 92 -5.8 21.6
17:35 1018 30.06 847 25.01 -4.6 23.7 92 -5.7 21.7
17:40 1018 30.06 847 25.01 -4.6 23.8 92 -5.6 21.8
17:45 1018 30.06 847 25.01 -4.6 23.8 92 -5.7 21.8
17:50 1018 30.06 847 25.01 -4.6 23.8 93 -5.6 22
17:55 1018 30.06 847 25.01 -4.5 23.8 93 -5.6 22
18:00 1018 30.06 847 25.01 -4.6 23.8 93 -5.6 22
18:05 1018 30.06 847 25.01 -4.6 23.8 92 -5.6 21.9
18:10 1018 30.06 847 25.01 -4.6 23.8 93 -5.6 21.9
18:15 1018 30.06 847 25.01 -4.6 23.7 93 -5.6 21.9
18:20 1018 30.06 847 25.01 -4.6 23.7 92 -5.7 21.8
18:25 1018 30.06 847 25.01 -4.6 23.7 93 -5.6 21.8
18:30 1018 30.06 847 25.01 -4.6 23.6 92 -5.7 21.7
18:35 1018 30.06 847 25.01 -4.7 23.6 92 -5.7 21.7
18:40 1018 30.06 847 25.01 -4.7 23.5 93 -5.7 21.7
18:45 1018 30.06 847 25.01 -4.7 23.5 92 -5.8 21.6
18:50 1018 30.06 848 25.04 -4.7 23.5 92 -5.8 21.6
18:55 1018 30.06 848 25.04 -4.7 23.5 92 -5.8 21.6
19:00 1018 30.06 848 25.04 -4.7 23.5 92 -5.8 21.6
19:05 1018 30.06 848 25.04 -4.7 23.5 91 -5.9 21.3
19:10 1019 30.09 848 25.04 -4.8 23.3 92 -6 21.3
19:15 1019 30.09 848 25.04 -4.9 23.1 92 -6 21.2
19:20 1019 30.09 848 25.04 -5 23.1 92 -6 21.2
19:25 1018 30.06 848 25.04 -5 23 92 -6 21.2
19:30 1018 30.06 848 25.04 -5 23 92 -6.1 21
19:35 1018 30.06 848 25.04 -5.1 22.8 93 -6.1 21.1
19:40 1018 30.06 848 25.04 -5.1 22.9 92 -6.1 21
19:45 1019 30.09 848 25.04 -5.1 22.8 93 -6.1 21
19:50 1019 30.09 848 25.04 -5.2 22.7 93 -6.2 20.9
19:55 1019 30.09 848 25.04 -5.2 22.7 93 -6.2 20.9
20:00 1019 30.09 848 25.04 -5.2 22.6 93 -6.2 20.8
20:05 1019 30.09 848 25.04 -5.2 22.6 93 -6.3 20.7
20:10 1019 30.09 848 25.04 -5.2 22.6 93 -6.3 20.7
20:15 1019 30.09 848 25.04 -5.3 22.4 93 -6.3 20.7
20:20 1019 30.09 848 25.04 -5.3 22.5 92 -6.4 20.5
20:25 1019 30.09 848 25.04 -5.4 22.3 93 -6.4 20.5
20:30 1019 30.09 848 25.04 -5.5 22.2 93 -6.4 20.5
20:35 1019 30.09 848 25.04 -5.4 22.3 93 -6.4 20.5
20:40 1019 30.09 848 25.04 -5.4 22.3 93 -6.4 20.5
20:45 1019 30.09 848 25.04 -5.4 22.3 93 -6.4 20.6
20:50 1019 30.09 848 25.04 -5.4 22.3 93 -6.3 20.6
20:55 1019 30.09 848 25.04 -5.4 22.3 93 -6.3 20.6
21:00 1019 30.09 848 25.04 -5.4 22.3 93 -6.3 20.6
21:05 1019 30.09 848 25.04 -5.4 22.3 93 -6.3 20.7
21:10 1019 30.09 848 25.04 -5.4 22.3 93 -6.3 20.7
21:15 1019 30.09 848 25.04 -5.3 22.4 93 -6.3 20.7
21:20 1019 30.09 848 25.04 -5.4 22.4 93 -6.3 20.6
21:25 1019 30.09 848 25.04 -5.3 22.4 93 -6.3 20.7
21:30 1019 30.09 848 25.04 -5.4 22.4 93 -6.3 20.6
21:35 1019 30.09 848 25.04 -5.3 22.4 93 -6.2 20.8
21:40 1019 30.09 848 25.04 -5.3 22.4 93 -6.2 20.8
21:45 1019 30.09 848 25.04 -5.3 22.5 93 -6.2 20.8
21:50 1019 30.09 848 25.04 -5.3 22.6 93 -6.2 20.8
21:55 1019 30.09 848 25.04 -5.2 22.6 93 -6.2 20.8
22:00 1019 30.09 848 25.04 -5.3 22.5 93 -6.2 20.9
22:05 1019 30.09 848 25.04 -5.3 22.5 94 -6.2 20.9
22:10 1019 30.09 848 25.04 -5.2 22.6 94 -6.1 21.1
22:15 1019 30.09 849 25.07 -5.2 22.7 93 -6.1 21
22:20 1019 30.09 849 25.07 -5.2 22.7 93 -6.1 21
22:25 1019 30.09 849 25.07 -5.2 22.7 93 -6.1 21
22:30 1019 30.09 849 25.07 -5.2 22.7 94 -6.1 21.1
22:35 1019 30.09 849 25.07 -5.1 22.8 93 -6.1 21.1
22:40 1019 30.09 849 25.07 -5.1 22.8 93 -6.1 21.1
22:45 1019 30.09 849 25.07 -5.1 22.8 94 -6 21.2
22:50 1019 30.09 849 25.07 -5.1 22.8 93 -6 21.2
22:55 1019 30.09 849 25.07 -5.1 22.9 93 -6 21.3
23:00 1019 30.09 849 25.07 -5.1 22.8 93 -6.1 21.1
23:05 1019 30.09 849 25.07 -5.1 22.8 93 -6.1 21
23:10 1019 30.09 849 25.07 -5.2 22.6 93 -6.1 20.9
23:15 1019 30.09 849 25.07 -5.3 22.5 93 -6.2 20.8
23:20 1019 30.09 849 25.07 -5.3 22.4 93 -6.3 20.7
23:25 1020 30.12 849 25.07 -5.3 22.5 93 -6.3 20.7
23:30 1020 30.12 849 25.07 -5.3 22.4 93 -6.3 20.6
23:35 1020 30.12 849 25.07 -5.4 22.3 92 -6.5 20.3
23:40 1020 30.12 849 25.07 -5.5 22.2 93 -6.4 20.5
23:45 1020 30.12 849 25.07 -5.5 22.2 93 -6.4 20.5
23:50 1020 30.12 849 25.07 -5.4 22.2 93 -6.5 20.4
23:55 1020 30.12 849 25.07 -5.5 22.1 93 -6.5 20.4
24:00 1020 30.12 849 25.07 -5.5 22.2 93 -6.4 20.4